Time,TemperatureF,DewpointF,PressureIn,WindDirection,WindDirectionDegrees,WindSpeedMPH,WindSpeedGustMPH,Humidity,HourlyPrecipIn,Conditions,Clouds,dailyrainin,SoftwareType,DateUTC
2013-06-28 00:03:00,67.3,67.0,29.79,WNW,293,0.0,0.0,98,0.00,,,0.00,weatherlink.com 1.10,2013-06-28 04:03:00,
2013-06-28 00:18:00,67.0,67.0,29.78,WNW,294,0.0,0.0,98,0.00,,,0.00,weatherlink.com 1.10,2013-06-28 04:18:00,
2013-06-28 00:33:00,66.9,66.0,29.78,WNW,294,0.0,0.0,98,0.00,,,0.00,weatherlink.com 1.10,2013-06-28 04:33:00,
2013-06-28 00:48:00,67.0,67.0,29.77,WNW,294,0.0,0.0,98,0.00,,,0.00,weatherlink.com 1.10,2013-06-28 04:48:00,
2013-06-28 01:04:00,66.7,66.0,29.77,WNW,294,0.0,0.0,98,0.00,,,0.00,weatherlink.com 1.10,2013-06-28 05:04:00,
2013-06-28 01:19:00,66.5,66.0,29.78,WNW,293,0.0,0.0,98,0.00,,,0.00,weatherlink.com 1.10,2013-06-28 05:19:00,
2013-06-28 01:34:00,66.8,67.0,29.77,WNW,293,0.0,0.0,99,0.00,,,0.00,weatherlink.com 1.10,2013-06-28 05:34:00,
2013-06-28 01:49:00,66.8,67.0,29.76,WNW,293,0.0,0.0,99,0.00,,,0.00,weatherlink.com 1.10,2013-06-28 05:49:00,
2013-06-28 02:04:00,67.1,67.0,29.76,WNW,293,0.0,0.0,99,0.00,,,0.00,weatherlink.com 1.10,2013-06-28 06:04:00,
2013-06-28 02:19:00,66.8,66.0,29.76,WNW,293,0.0,0.0,98,0.00,,,0.00,weatherlink.com 1.10,2013-06-28 06:19:00,
2013-06-28 02:34:00,66.3,66.0,29.75,WNW,293,0.0,0.0,98,0.00,,,0.00,weatherlink.com 1.10,2013-06-28 06:34:00,
2013-06-28 02:49:00,66.1,66.0,29.75,WNW,294,0.0,0.0,99,0.00,,,0.00,weatherlink.com 1.10,2013-06-28 06:49:00,
2013-06-28 03:04:00,66.9,67.0,29.76,WNW,293,0.0,0.0,99,0.00,,,0.00,weatherlink.com 1.10,2013-06-28 07:04:00,
2013-06-28 03:19:00,66.7,66.0,29.75,WNW,294,0.0,0.0,99,0.00,,,0.00,weatherlink.com 1.10,2013-06-28 07:19:00,
2013-06-28 03:34:00,67.0,67.0,29.75,WNW,293,0.0,0.0,99,0.00,,,0.00,weatherlink.com 1.10,2013-06-28 07:34:00,
2013-06-28 03:49:00,66.9,67.0,29.75,WNW,294,0.0,0.0,99,0.00,,,0.00,weatherlink.com 1.10,2013-06-28 07:49:00,
2013-06-28 04:13:00,66.5,66.0,29.76,WNW,293,0.0,0.0,99,0.00,,,0.00,weatherlink.com 1.10,2013-06-28 08:13:00,
2013-06-28 04:19:00,66.5,66.0,29.75,WNW,293,0.0,0.0,99,0.00,,,0.00,weatherlink.com 1.10,2013-06-28 08:19:00,
2013-06-28 04:34:00,66.2,66.0,29.75,WNW,293,0.0,0.0,99,0.00,,,0.00,weatherlink.com 1.10,2013-06-28 08:34:00,
2013-06-28 04:49:00,66.4,66.0,29.75,WNW,294,0.0,0.0,99,0.00,,,0.00,weatherlink.com 1.10,2013-06-28 08:49:00,
2013-06-28 05:04:00,66.4,66.0,29.75,WNW,294,0.0,0.0,99,0.00,,,0.00,weatherlink.com 1.10,2013-06-28 09:04:00,
2013-06-28 05:19:00,66.2,66.0,29.75,WNW,293,0.0,0.0,99,0.00,,,0.00,weatherlink.com 1.10,2013-06-28 09:19:00,
2013-06-28 05:34:00,66.2,66.0,29.75,WNW,294,0.0,0.0,99,0.00,,,0.00,weatherlink.com 1.10,2013-06-28 09:34:00,
2013-06-28 05:49:00,66.1,66.0,29.74,WNW,294,0.0,0.0,99,0.00,,,0.00,weatherlink.com 1.10,2013-06-28 09:49:00,
2013-06-28 06:04:00,65.8,66.0,29.74,WNW,293,0.0,0.0,99,0.00,,,0.00,weatherlink.com 1.10,2013-06-28 10:04:00,
2013-06-28 06:19:00,66.0,66.0,29.75,WNW,293,0.0,0.0,99,0.00,,,0.00,weatherlink.com 1.10,2013-06-28 10:19:00,
2013-06-28 06:34:00,65.7,65.0,29.75,WNW,293,0.0,0.0,99,0.00,,,0.00,weatherlink.com 1.10,2013-06-28 10:34:00,
2013-06-28 06:49:00,65.5,65.0,29.75,WNW,294,0.0,0.0,99,0.00,,,0.00,weatherlink.com 1.10,2013-06-28 10:49:00,
2013-06-28 07:04:00,65.8,66.0,29.75,WNW,293,0.0,0.0,99,0.00,,,0.00,weatherlink.com 1.10,2013-06-28 11:04:00,
2013-06-28 07:19:00,66.4,66.0,29.75,WNW,294,0.0,0.0,99,0.00,,,0.00,weatherlink.com 1.10,2013-06-28 11:19:00,
2013-06-28 07:35:00,66.8,67.0,29.75,WNW,293,0.0,0.0,99,0.00,,,0.00,weatherlink.com 1.10,2013-06-28 11:35:00,
2013-06-28 07:49:00,66.7,66.0,29.75,WNW,293,0.0,0.0,99,0.01,,,0.01,weatherlink.com 1.10,2013-06-28 11:49:00,
2013-06-28 08:04:00,66.8,67.0,29.76,WNW,293,0.0,0.0,99,0.01,,,0.01,weatherlink.com 1.10,2013-06-28 12:04:00,
2013-06-28 08:19:00,66.9,67.0,29.76,WNW,294,0.0,0.0,99,0.01,,,0.01,weatherlink.com 1.10,2013-06-28 12:19:00,
2013-06-28 08:34:00,67.6,67.0,29.76,WNW,294,0.0,0.0,99,0.01,,,0.01,weatherlink.com 1.10,2013-06-28 12:34:00,
2013-06-28 08:49:00,68.5,68.0,29.75,WNW,294,0.0,0.0,99,0.00,,,0.01,weatherlink.com 1.10,2013-06-28 12:49:00,
2013-06-28 09:04:00,69.4,69.0,29.75,WNW,294,0.0,0.0,99,0.00,,,0.01,weatherlink.com 1.10,2013-06-28 13:04:00,
2013-06-28 09:19:00,70.2,70.0,29.75,WNW,294,0.0,0.0,99,0.00,,,0.01,weatherlink.com 1.10,2013-06-28 13:19:00,
2013-06-28 09:34:00,70.7,70.0,29.74,SW,215,0.0,0.0,99,0.00,,,0.01,weatherlink.com 1.10,2013-06-28 13:34:00,
2013-06-28 09:49:00,71.9,71.0,29.74,ESE,108,0.0,0.0,98,0.00,,,0.01,weatherlink.com 1.10,2013-06-28 13:49:00,
2013-06-28 10:04:00,73.0,71.0,29.74,ESE,115,0.0,0.0,94,0.00,,,0.01,weatherlink.com 1.10,2013-06-28 14:04:00,
2013-06-28 10:19:00,75.1,73.0,29.73,ESE,106,0.0,1.0,92,0.00,,,0.01,weatherlink.com 1.10,2013-06-28 14:19:00,
2013-06-28 10:35:00,76.7,74.0,29.73,ESE,112,0.0,2.0,90,0.00,,,0.01,weatherlink.com 1.10,2013-06-28 14:35:00,
2013-06-28 10:50:00,78.3,73.0,29.73,SE,128,2.0,3.0,84,0.00,,,0.01,weatherlink.com 1.10,2013-06-28 14:50:00,
2013-06-28 11:05:00,80.0,73.0,29.73,ESE,115,1.0,3.0,80,0.00,,,0.01,weatherlink.com 1.10,2013-06-28 15:05:00,
2013-06-28 11:20:00,80.5,73.0,29.73,SE,124,0.0,3.0,79,0.00,,,0.01,weatherlink.com 1.10,2013-06-28 15:20:00,
2013-06-28 11:35:00,81.1,71.0,29.73,ESE,121,1.0,3.0,72,0.00,,,0.01,weatherlink.com 1.10,2013-06-28 15:35:00,
2013-06-28 11:50:00,82.4,73.0,29.73,ESE,108,0.0,1.0,74,0.00,,,0.01,weatherlink.com 1.10,2013-06-28 15:50:00,
2013-06-28 12:05:00,83.4,73.0,29.73,ESE,122,3.0,3.0,70,0.00,,,0.01,weatherlink.com 1.10,2013-06-28 16:05:00,
2013-06-28 12:20:00,82.8,72.0,29.72,ESE,103,1.0,2.0,69,0.00,,,0.01,weatherlink.com 1.10,2013-06-28 16:20:00,
2013-06-28 12:35:00,83.7,71.0,29.72,ESE,109,0.0,2.0,66,0.00,,,0.01,weatherlink.com 1.10,2013-06-28 16:35:00,
2013-06-28 12:50:00,84.7,71.0,29.71,East,99,0.0,3.0,64,0.00,,,0.01,weatherlink.com 1.10,2013-06-28 16:50:00,
2013-06-28 13:05:00,85.5,71.0,29.70,ENE,73,0.0,3.0,62,0.00,,,0.01,weatherlink.com 1.10,2013-06-28 17:05:00,
2013-06-28 13:20:00,85.9,71.0,29.70,East,99,2.0,3.0,61,0.00,,,0.01,weatherlink.com 1.10,2013-06-28 17:20:00,
2013-06-28 13:35:00,86.3,71.0,29.69,SE,126,1.0,3.0,60,0.00,,,0.01,weatherlink.com 1.10,2013-06-28 17:35:00,
2013-06-28 13:50:00,85.6,73.0,29.68,East,98,0.0,5.0,65,0.00,,,0.01,weatherlink.com 1.10,2013-06-28 17:50:00,
2013-06-28 14:05:00,85.2,71.0,29.67,East,96,0.0,2.0,62,0.00,,,0.01,weatherlink.com 1.10,2013-06-28 18:05:00,
2013-06-28 14:20:00,86.3,70.0,29.66,ESE,112,0.0,4.0,58,0.00,,,0.01,weatherlink.com 1.10,2013-06-28 18:20:00,
2013-06-28 14:35:00,87.2,71.0,29.64,ENE,69,2.0,2.0,59,0.00,,,0.01,weatherlink.com 1.10,2013-06-28 18:35:00,
2013-06-28 14:50:00,87.3,71.0,29.64,East,91,1.0,4.0,58,0.00,,,0.01,weatherlink.com 1.10,2013-06-28 18:50:00,
2013-06-28 15:05:00,86.6,72.0,29.63,East,96,1.0,2.0,62,0.00,,,0.01,weatherlink.com 1.10,2013-06-28 19:05:00,
2013-06-28 15:20:00,87.5,70.0,29.62,East,101,3.0,3.0,57,0.00,,,0.01,weatherlink.com 1.10,2013-06-28 19:20:00,
2013-06-28 15:35:00,86.3,70.0,29.61,SE,125,0.0,2.0,59,0.00,,,0.01,weatherlink.com 1.10,2013-06-28 19:35:00,
2013-06-28 15:50:00,83.3,72.0,29.61,ESE,103,0.0,2.0,68,0.00,,,0.01,weatherlink.com 1.10,2013-06-28 19:50:00,
2013-06-28 16:06:00,81.0,72.0,29.61,East,100,0.0,0.0,74,0.00,,,0.01,weatherlink.com 1.10,2013-06-28 20:06:00,
2013-06-28 16:21:00,79.3,72.0,29.59,ESE,113,0.0,0.0,78,0.00,,,0.01,weatherlink.com 1.10,2013-06-28 20:21:00,
2013-06-28 16:36:00,78.9,72.0,29.59,ESE,113,0.0,0.0,80,0.00,,,0.01,weatherlink.com 1.10,2013-06-28 20:36:00,
2013-06-28 16:51:00,78.0,72.0,29.61,ESE,113,0.0,0.0,82,0.00,,,0.01,weatherlink.com 1.10,2013-06-28 20:51:00,
2013-06-28 17:06:00,74.7,66.0,29.62,NE,45,6.0,11.0,73,0.00,,,0.01,weatherlink.com 1.10,2013-06-28 21:06:00,
2013-06-28 17:21:00,69.8,67.0,29.62,East,82,3.0,5.0,89,0.07,,,0.08,weatherlink.com 1.10,2013-06-28 21:21:00,
2013-06-28 17:36:00,68.8,67.0,29.60,ESE,103,1.0,2.0,95,0.08,,,0.09,weatherlink.com 1.10,2013-06-28 21:36:00,
2013-06-28 17:51:00,71.5,71.0,29.61,SSE,148,0.0,1.0,97,0.08,,,0.09,weatherlink.com 1.10,2013-06-28 21:51:00,
2013-06-28 18:06:00,72.2,71.0,29.61,SSE,163,0.0,1.0,95,0.08,,,0.09,weatherlink.com 1.10,2013-06-28 22:06:00,
2013-06-28 18:21:00,72.5,70.0,29.61,SSE,164,0.0,0.0,92,0.01,,,0.09,weatherlink.com 1.10,2013-06-28 22:21:00,
2013-06-28 18:36:00,72.6,70.0,29.60,SSE,163,0.0,0.0,92,0.00,,,0.09,weatherlink.com 1.10,2013-06-28 22:36:00,
2013-06-28 18:51:00,72.7,71.0,29.60,SSE,163,0.0,0.0,93,0.00,,,0.09,weatherlink.com 1.10,2013-06-28 22:51:00,
2013-06-28 19:06:00,72.9,71.0,29.60,SSE,162,0.0,0.0,94,0.00,,,0.09,weatherlink.com 1.10,2013-06-28 23:06:00,
2013-06-28 19:21:00,72.5,70.0,29.61,SSE,162,0.0,0.0,93,0.00,,,0.09,weatherlink.com 1.10,2013-06-28 23:21:00,
2013-06-28 19:36:00,71.6,70.0,29.61,SSE,151,0.0,0.0,94,0.00,,,0.09,weatherlink.com 1.10,2013-06-28 23:36:00,
2013-06-28 19:51:00,70.6,69.0,29.61,SE,146,0.0,0.0,95,0.00,,,0.09,weatherlink.com 1.10,2013-06-28 23:51:00,
2013-06-28 20:06:00,70.5,69.0,29.61,SSW,201,0.0,0.0,95,0.00,,,0.09,weatherlink.com 1.10,2013-06-29 00:06:00,
2013-06-28 20:21:00,70.3,69.0,29.62,SSW,202,0.0,0.0,95,0.00,,,0.09,weatherlink.com 1.10,2013-06-29 00:21:00,
2013-06-28 20:36:00,70.4,69.0,29.62,SSW,201,0.0,0.0,95,0.00,,,0.09,weatherlink.com 1.10,2013-06-29 00:36:00,
2013-06-28 20:51:00,70.3,69.0,29.64,SW,227,0.0,0.0,95,0.01,,,0.10,weatherlink.com 1.10,2013-06-29 00:51:00,
2013-06-28 21:06:00,69.9,69.0,29.64,ESE,122,0.0,2.0,95,0.03,,,0.12,weatherlink.com 1.10,2013-06-29 01:06:00,
2013-06-28 21:21:00,69.3,68.0,29.63,SE,124,0.0,0.0,96,0.04,,,0.13,weatherlink.com 1.10,2013-06-29 01:21:00,
2013-06-28 21:36:00,68.8,68.0,29.64,SE,125,0.0,0.0,96,0.05,,,0.14,weatherlink.com 1.10,2013-06-29 01:36:00,
2013-06-28 21:51:00,68.3,68.0,29.64,SE,125,0.0,0.0,97,0.04,,,0.14,weatherlink.com 1.10,2013-06-29 01:51:00,
2013-06-28 22:06:00,68.1,67.0,29.63,ESE,116,0.0,0.0,97,0.02,,,0.14,weatherlink.com 1.10,2013-06-29 02:06:00,
2013-06-28 22:21:00,67.9,67.0,29.64,ESE,115,0.0,0.0,97,0.01,,,0.14,weatherlink.com 1.10,2013-06-29 02:21:00,
2013-06-28 22:36:00,67.8,67.0,29.64,ESE,115,0.0,0.0,98,0.00,,,0.14,weatherlink.com 1.10,2013-06-29 02:36:00,
2013-06-28 22:51:00,67.7,67.0,29.64,ESE,115,0.0,0.0,98,0.00,,,0.14,weatherlink.com 1.10,2013-06-29 02:51:00,
2013-06-28 23:06:00,67.5,67.0,29.65,ESE,115,0.0,0.0,98,0.00,,,0.14,weatherlink.com 1.10,2013-06-29 03:06:00,
2013-06-28 23:21:00,67.3,67.0,29.65,ESE,116,0.0,0.0,98,0.00,,,0.14,weatherlink.com 1.10,2013-06-29 03:21:00,
2013-06-28 23:36:00,67.1,67.0,29.64,ESE,115,0.0,0.0,98,0.00,,,0.14,weatherlink.com 1.10,2013-06-29 03:36:00,
2013-06-28 23:51:00,66.8,66.0,29.64,ESE,115,0.0,0.0,98,0.00,,,0.14,weatherlink.com 1.10,2013-06-29 03:51:00,